Accueil
METAR-TAF:

METAR-TAF

Aéroports :

Aéroport de Calais

Calais, France

latitude: 50-57-39N, longitude: 001-57-05E, altitude: 4 m

Observation

Le bulletin a été fait il y a 38 minutes, à 05:00 UTC
Vent 15 kt de nord/nord-ouest
Température 14°C
Humidité 94%
Pression 1010 hPa
Visibilité: 9000 m
Ciel couvert à une hauteur de 700 ft

METAR: LFAC 280500Z AUTO 34015KT 9000 OVC007 14/13 Q1010

Heure: 07:38 (05:38 UTC)


TAF: absent

Observations et prévisions météorologiques de plus de 4000 aéroports (messages METAR et TAF).

Les stations disponibles sont représentées par des disques jaunes et rouges sur la carte.

Passer la souris dessus pour voir le nom de la station.

Cliquer dessus pour voir les observations et prévisions météorologiques.

Pour changer de carte: cliquez sur les boutons verts avec une croix noire pour zoomer, sur le bouton vert avec un tiret pour effectuer un zoom arrière, ou sur les flèches vertes pour les cartes adjacentes.


METAR-TAF: